Time;durP1;ratioP1;P1;durP2;ratioP2;P2;SDS_P1;SDS_P2;PMS_P1;PMS_P2;Temp;Humidity;BMP_temperature;BMP_pressure;BME280_temperature;BME280_humidity;BME280_pressure;Samples;Min_cycle;Max_cycle;Signal;HPM_P1;HPM_P2
2023/09/17 00:01:46;;;;;;;18.20;12.75;;;;;;;16.43;77.16;101665.72;7402722;19;19922;-67
2023/09/17 00:04:15;;;;;;;17.35;11.70;;;;;;;16.44;76.89;101669.28;7399497;19;19919;-66
2023/09/17 00:06:46;;;;;;;16.58;11.82;;;;;;;16.46;76.82;101667.19;7401665;19;19943;-66
2023/09/17 00:09:17;;;;;;;16.30;11.95;;;;;;;16.44;76.93;101667.38;7401413;19;19919;-66
2023/09/17 00:11:46;;;;;;;16.85;11.75;;;;;;;16.39;77.13;101669.03;7401858;19;19974;-66
2023/09/17 00:14:15;;;;;;;16.75;12.02;;;;;;;16.35;77.29;101663.16;7399233;19;19922;-66
2023/09/17 00:16:43;;;;;;;17.80;12.13;;;;;;;16.32;77.21;101664.34;7401847;19;20042;-66
2023/09/17 00:19:13;;;;;;;16.50;12.25;;;;;;;16.32;76.86;101660.78;7401898;19;19930;-66
2023/09/17 00:22:06;;;;;;;17.80;13.27;;;;;;;16.29;76.97;101658.47;7398879;19;20381;-66
2023/09/17 00:24:54;;;;;;;17.45;11.93;;;;;;;16.26;77.04;101657.00;7399494;19;19985;-65
2023/09/17 00:27:23;;;;;;;15.45;12.43;;;;;;;16.26;76.92;101653.44;7401668;19;20301;-65
2023/09/17 00:29:51;;;;;;;16.20;11.48;;;;;;;16.23;77.40;101654.66;7401885;19;19919;-66
2023/09/17 00:32:20;;;;;;;17.15;13.02;;;;;;;16.18;77.90;101651.66;7401108;19;19914;-66
2023/09/17 00:34:49;;;;;;;17.73;12.38;;;;;;;16.14;77.63;101650.38;7397134;19;19964;-66
2023/09/17 00:37:20;;;;;;;19.13;12.95;;;;;;;16.12;77.47;101657.06;7399759;19;20460;-65
2023/09/17 00:39:49;;;;;;;13.80;10.55;;;;;;;16.08;78.16;101650.31;7400918;19;19930;-66
2023/09/17 00:42:17;;;;;;;18.75;12.63;;;;;;;16.03;77.84;101645.47;7400997;19;19947;-66
2023/09/17 00:44:46;;;;;;;18.05;13.05;;;;;;;16.03;78.15;101642.75;7397885;19;19970;-66
2023/09/17 00:47:16;;;;;;;17.17;10.85;;;;;;;16.03;78.03;101641.91;7401528;19;19946;-66
2023/09/17 00:49:45;;;;;;;17.60;11.98;;;;;;;16.00;78.36;101640.44;7400486;19;19923;-65
2023/09/17 00:52:20;;;;;;;15.10;11.45;;;;;;;15.98;78.70;101639.75;7401648;19;19947;-66
2023/09/17 00:54:52;;;;;;;19.55;11.75;;;;;;;16.01;78.59;101641.25;7400142;19;19983;-67
2023/09/17 00:57:22;;;;;;;17.48;12.35;;;;;;;16.00;78.76;101637.72;7400473;19;19915;-66
2023/09/17 00:59:51;;;;;;;17.00;11.82;;;;;;;16.00;78.68;101642.31;7400046;19;19929;-66
2023/09/17 01:02:22;;;;;;;17.67;12.48;;;;;;;16.00;79.14;101626.84;7400639;19;19951;-66
2023/09/17 01:04:55;;;;;;;16.05;11.65;;;;;;;16.01;78.86;101631.22;7396728;19;19926;-66
2023/09/17 01:07:26;;;;;;;16.65;12.43;;;;;;;16.01;79.30;101633.09;7400646;19;19918;-66
2023/09/17 01:09:55;;;;;;;16.77;12.57;;;;;;;15.99;79.08;101632.47;7401123;19;19923;-66
2023/09/17 01:12:24;;;;;;;17.42;12.27;;;;;;;16.00;79.08;101636.88;7399834;19;19929;-66
2023/09/17 01:14:54;;;;;;;16.75;12.27;;;;;;;16.02;79.42;101624.75;7399687;19;19925;-66
2023/09/17 01:17:27;;;;;;;18.70;12.45;;;;;;;16.04;79.35;101630.00;7400332;19;19925;-66
2023/09/17 01:19:56;;;;;;;18.55;13.68;;;;;;;16.04;79.46;101624.56;7399687;19;20271;-66
2023/09/17 01:22:34;;;;;;;17.52;12.73;;;;;;;16.01;79.62;101617.63;7399972;19;20390;-66
2023/09/17 01:25:07;;;;;;;18.55;14.15;;;;;;;16.02;79.52;101611.16;7399869;19;19947;-66
2023/09/17 01:27:41;;;;;;;18.50;13.02;;;;;;;16.02;79.89;101616.59;7400051;19;19927;-66
2023/09/17 01:30:15;;;;;;;22.67;12.85;;;;;;;16.04;79.73;101611.81;7400102;19;19959;-66
2023/09/17 01:32:44;;;;;;;19.08;14.65;;;;;;;16.03;79.81;101612.84;7398965;19;19919;-65
2023/09/17 01:35:15;;;;;;;19.63;13.80;;;;;;;16.04;79.61;101613.69;7396918;19;19934;-66
2023/09/17 01:38:08;;;;;;;20.77;14.18;;;;;;;16.01;79.86;101605.91;7396458;19;20000;-65
2023/09/17 01:40:38;;;;;;;18.77;13.15;;;;;;;15.99;79.85;101608.84;7401300;19;19922;-66
2023/09/17 01:43:10;;;;;;;21.70;13.25;;;;;;;16.01;80.09;101611.34;7399326;19;19918;-66
2023/09/17 01:45:39;;;;;;;19.73;14.38;;;;;;;15.99;80.16;101608.00;7400008;19;19922;-66
2023/09/17 01:48:29;;;;;;;21.35;13.88;;;;;;;15.94;80.41;101602.28;7397851;19;19923;-66
2023/09/17 01:50:59;;;;;;;18.38;13.40;;;;;;;15.93;80.15;101604.16;7398203;19;20292;-66
2023/09/17 01:53:28;;;;;;;18.98;13.88;;;;;;;15.92;80.46;101607.91;7399124;19;19951;-66
2023/09/17 01:55:57;;;;;;;21.55;15.20;;;;;;;15.91;80.72;101605.41;7396114;19;20285;-66
2023/09/17 01:58:29;;;;;;;26.45;15.63;;;;;;;15.90;80.77;101607.28;7399356;19;19918;-66
2023/09/17 02:00:57;;;;;;;;;;;;;;;15.68;83.21;101611.03;7402426;19;19922;-67
2023/09/17 02:03:26;;;;;;;23.60;15.27;;;;;;;15.87;81.17;101603.09;7398925;19;19939;-66
2023/09/17 02:05:55;;;;;;;22.30;15.82;;;;;;;15.93;80.89;101600.59;7395750;19;19930;-66
2023/09/17 02:08:23;;;;;;;19.40;13.52;;;;;;;15.94;80.91;101603.16;7397868;19;19915;-66
2023/09/17 02:10:52;;;;;;;19.00;13.45;;;;;;;15.95;80.93;101596.69;7398813;19;19922;-66
2023/09/17 02:13:20;;;;;;;20.48;15.70;;;;;;;15.95;81.33;101606.72;7397311;19;20368;-66
2023/09/17 02:15:52;;;;;;;19.52;13.45;;;;;;;15.89;81.42;101603.72;7400108;19;20282;-66
2023/09/17 02:18:21;;;;;;;22.63;15.20;;;;;;;15.89;81.85;101613.75;7399225;19;20285;-66
2023/09/17 02:20:50;;;;;;;21.90;14.40;;;;;;;15.89;81.72;101613.75;7398964;19;20029;-66
2023/09/17 02:23:19;;;;;;;19.80;13.73;;;;;;;15.90;81.83;101612.72;7398753;19;19914;-66
2023/09/17 02:25:47;;;;;;;22.13;14.23;;;;;;;15.86;81.51;101609.56;7398114;19;20273;-66
2023/09/17 02:28:16;;;;;;;20.85;15.68;;;;;;;15.81;81.85;101613.88;7398402;19;19985;-66
2023/09/17 02:30:45;;;;;;;21.50;13.57;;;;;;;15.78;82.21;101617.00;7397530;19;19923;-66
2023/09/17 02:33:16;;;;;;;19.00;12.88;;;;;;;15.78;82.54;101614.28;7398320;19;19935;-66
2023/09/17 02:36:06;;;;;;;21.02;14.10;;;;;;;15.77;82.48;101609.88;7392659;19;19922;-67
2023/09/17 02:38:34;;;;;;;20.40;15.10;;;;;;;15.80;82.29;101609.47;7397643;19;20467;-66
2023/09/17 02:41:04;;;;;;;19.35;13.20;;;;;;;15.79;82.46;101610.53;7398954;19;19926;-66
2023/09/17 02:43:33;;;;;;;18.42;12.90;;;;;;;15.77;82.75;101601.72;7398240;19;19929;-65
2023/09/17 02:46:21;;;;;;;18.13;12.93;;;;;;;15.77;82.70;101608.00;7395546;19;19929;-66
2023/09/17 02:48:54;;;;;;;19.52;13.10;;;;;;;15.78;82.35;101601.53;7398839;19;19950;-66
2023/09/17 02:51:23;;;;;;;16.90;12.93;;;;;;;15.75;82.69;101604.63;7397228;19;20376;-66
2023/09/17 02:53:49;;;;;;;22.77;14.55;;;;;;;15.75;82.35;101601.91;7397529;19;19951;-66
2023/09/17 02:56:18;;;;;;;19.73;14.02;;;;;;;15.72;82.63;101596.84;7397775;19;20257;-66
2023/09/17 02:58:47;;;;;;;18.05;12.43;;;;;;;15.72;83.08;101606.88;7397625;19;19918;-66
2023/09/17 03:01:18;;;;;;;18.15;12.50;;;;;;;15.76;82.93;101608.19;7397980;19;19948;-66
2023/09/17 03:03:46;;;;;;;21.08;13.30;;;;;;;15.78;83.27;101612.41;7395536;19;19918;-66
2023/09/17 03:06:18;;;;;;;18.92;13.77;;;;;;;15.78;83.08;101615.13;7395782;19;19947;-66
2023/09/17 03:08:47;;;;;;;19.55;13.52;;;;;;;15.80;82.96;101621.19;7401308;19;19919;-66
2023/09/17 03:11:17;;;;;;;15.98;11.95;;;;;;;15.82;83.38;101616.41;7402808;19;19919;-66
2023/09/17 03:13:47;;;;;;;19.00;12.80;;;;;;;15.86;83.11;101619.59;7400790;19;19929;-66
2023/09/17 03:16:18;;;;;;;17.73;12.25;;;;;;;15.86;83.17;101609.56;7403120;19;19996;-66
2023/09/17 03:18:48;;;;;;;16.13;11.90;;;;;;;15.87;83.24;101613.97;7402833;19;19926;-66
2023/09/17 03:21:19;;;;;;;18.15;13.55;;;;;;;15.89;83.55;101611.03;7402314;19;20029;-66
2023/09/17 03:23:48;;;;;;;18.85;12.23;;;;;;;15.88;83.99;101614.78;7403702;19;19943;-66
2023/09/17 03:26:17;;;;;;;17.33;13.23;;;;;;;15.90;83.64;101612.72;7402594;19;19915;-66
2023/09/17 03:28:45;;;;;;;17.60;12.80;;;;;;;15.90;83.78;101607.28;7402515;19;19914;-66
2023/09/17 03:31:14;;;;;;;17.38;13.35;;;;;;;15.92;84.09;101607.09;7401960;19;19939;-66
2023/09/17 03:33:43;;;;;;;19.48;13.05;;;;;;;15.95;83.91;101612.16;7400595;19;20034;-66
2023/09/17 03:36:11;;;;;;;18.45;13.00;;;;;;;15.96;84.10;101613.84;7401144;19;19931;-66
2023/09/17 03:39:05;;;;;;;20.35;13.65;;;;;;;15.98;84.50;101606.31;7399737;19;20257;-66
2023/09/17 03:41:34;;;;;;;20.27;14.18;;;;;;;15.99;84.65;101613.44;7402092;19;19930;-66
2023/09/17 03:44:23;;;;;;;18.42;14.05;;;;;;;15.98;84.82;101609.88;7399915;19;19978;-66
2023/09/17 03:46:51;;;;;;;22.85;14.65;;;;;;;16.02;84.59;101608.44;7401690;19;19933;-66
2023/09/17 03:49:23;;;;;;;18.40;13.82;;;;;;;16.04;84.81;101602.81;7400924;19;19927;-66
2023/09/17 03:51:52;;;;;;;23.77;15.30;;;;;;;16.06;85.02;101612.44;7401419;19;19930;-66
2023/09/17 03:54:23;;;;;;;21.85;14.20;;;;;;;16.07;84.74;101610.59;7401874;19;20321;-66
2023/09/17 03:56:52;;;;;;;25.08;16.38;;;;;;;16.10;84.67;101616.47;7402229;19;19934;-66
2023/09/17 03:59:21;;;;;;;22.77;16.35;;;;;;;16.11;85.13;101612.72;7399261;19;19947;-66
2023/09/17 04:02:09;;;;;;;25.73;15.32;;;;;;;16.13;84.88;101623.41;7399134;19;19978;-66
2023/09/17 04:04:38;;;;;;;23.00;16.50;;;;;;;16.14;86.00;101617.75;7398573;19;20012;-66
2023/09/17 04:07:06;;;;;;;24.30;17.23;;;;;;;16.15;85.99;101626.75;7400801;19;20265;-66
2023/09/17 04:09:38;;;;;;;23.55;16.15;;;;;;;16.14;85.75;101628.63;7402405;19;19990;-66
2023/09/17 04:12:08;;;;;;;22.15;15.93;;;;;;;16.15;85.61;101621.31;7401017;19;19922;-65
2023/09/17 04:14:37;;;;;;;21.05;15.20;;;;;;;16.16;85.67;101614.84;7402194;19;19943;-65
2023/09/17 04:17:07;;;;;;;26.48;17.63;;;;;;;16.16;85.78;101623.84;7401662;19;20282;-66
2023/09/17 04:19:36;;;;;;;23.85;17.10;;;;;;;16.15;85.70;101619.44;7398912;19;19944;-66
2023/09/17 04:22:05;;;;;;;23.05;16.27;;;;;;;16.16;86.25;101625.72;7400833;19;19922;-66
2023/09/17 04:24:34;;;;;;;22.83;16.42;;;;;;;16.19;85.90;101620.72;7400930;19;19918;-66
2023/09/17 04:27:06;;;;;;;23.08;15.30;;;;;;;16.20;85.60;101622.41;7401670;19;19919;-66
2023/09/17 04:29:34;;;;;;;;;;;;;;;16.00;87.87;101626.84;7401470;19;19922;-66
2023/09/17 04:32:03;;;;;;;20.80;14.95;;;;;;;16.14;85.95;101622.34;7401689;19;19914;-66
2023/09/17 04:34:32;;;;;;;23.60;14.98;;;;;;;16.15;85.89;101624.03;7395948;19;19931;-67
2023/09/17 04:37:01;;;;;;;24.48;15.63;;;;;;;16.17;85.58;101616.53;7400017;19;19934;-66
2023/09/17 04:39:29;;;;;;;23.88;15.30;;;;;;;16.18;85.72;101613.59;7401401;19;19919;-66
2023/09/17 04:41:58;;;;;;;21.10;14.50;;;;;;;16.19;85.52;101607.13;7401095;19;20381;-66
2023/09/17 04:44:30;;;;;;;22.92;15.82;;;;;;;16.21;85.65;101609.66;7400126;19;20360;-66
2023/09/17 04:47:00;;;;;;;22.17;14.57;;;;;;;16.20;86.30;101610.69;7400550;19;20400;-66
2023/09/17 04:49:30;;;;;;;20.98;15.07;;;;;;;16.21;85.81;101612.41;7400139;19;19918;-66
2023/09/17 04:51:58;;;;;;;23.38;16.30;;;;;;;16.19;86.48;101617.16;7401126;19;19915;-66
2023/09/17 04:54:27;;;;;;;21.33;14.15;;;;;;;16.19;85.75;101609.84;7398974;19;20280;-66
2023/09/17 04:56:56;;;;;;;20.08;14.82;;;;;;;16.19;85.78;101612.56;7400810;19;19921;-66
2023/09/17 04:59:27;;;;;;;21.70;14.80;;;;;;;16.20;86.28;101608.81;7398828;19;19918;-66
2023/09/17 05:01:58;;;;;;;18.65;13.27;;;;;;;16.20;85.72;101607.97;7401049;19;20434;-66
2023/09/17 05:04:47;;;;;;;21.90;14.27;;;;;;;16.18;86.02;101612.78;7393221;19;20292;-66
2023/09/17 05:07:16;;;;;;;22.50;14.77;;;;;;;16.18;85.79;101612.78;7400379;19;19922;-66
2023/09/17 05:09:45;;;;;;;21.65;14.77;;;;;;;16.18;86.23;101610.88;7401191;19;19931;-66
2023/09/17 05:12:13;;;;;;;20.73;14.07;;;;;;;16.18;85.62;101615.50;7399647;19;19996;-66
2023/09/17 05:14:42;;;;;;;19.70;13.80;;;;;;;16.17;85.58;101616.53;7399953;19;20033;-66
2023/09/17 05:17:13;;;;;;;17.67;13.23;;;;;;;16.15;85.89;101611.28;7400352;19;19979;-66
2023/09/17 05:19:42;;;;;;;21.13;14.10;;;;;;;16.14;85.91;101609.59;7400437;19;20254;-66
2023/09/17 05:22:11;;;;;;;18.77;13.57;;;;;;;16.12;86.01;101611.69;7400786;19;19918;-66
2023/09/17 05:24:40;;;;;;;19.00;14.00;;;;;;;16.13;86.52;101616.09;7399301;19;19930;-66
2023/09/17 05:27:09;;;;;;;18.90;13.98;;;;;;;16.16;86.60;101609.41;7399791;19;19925;-66
2023/09/17 05:29:38;;;;;;;18.63;13.65;;;;;;;16.16;87.01;101593.09;7399814;19;19933;-66
2023/09/17 05:32:06;;;;;;;19.95;14.55;;;;;;;16.15;86.33;101600.41;7398930;19;19918;-66
2023/09/17 05:34:38;;;;;;;18.17;13.75;;;;;;;16.13;86.45;101613.38;7396838;19;19922;-66
2023/09/17 05:37:07;;;;;;;18.92;14.68;;;;;;;16.14;86.67;101612.31;7398785;19;20373;-67
2023/09/17 05:39:36;;;;;;;20.15;14.55;;;;;;;16.13;86.63;101621.53;7399984;19;20552;-66
2023/09/17 05:42:05;;;;;;;19.33;15.05;;;;;;;16.15;86.85;101613.16;7400041;19;19923;-66
2023/09/17 05:44:33;;;;;;;22.08;14.88;;;;;;;16.18;86.68;101610.88;7399701;19;19918;-65
2023/09/17 05:47:02;;;;;;;19.42;15.93;;;;;;;16.21;86.52;101610.53;7400610;19;19953;-66
2023/09/17 05:49:31;;;;;;;21.23;15.02;;;;;;;16.24;86.88;101618.28;7397024;19;19915;-66
2023/09/17 05:52:22;;;;;;;19.52;14.32;;;;;;;16.23;86.45;101616.59;7397472;19;20811;-66
2023/09/17 05:54:50;;;;;;;18.98;14.82;;;;;;;16.21;86.74;101615.09;7399517;19;19934;-66
2023/09/17 05:57:19;;;;;;;21.55;17.20;;;;;;;16.21;87.16;101620.53;7399601;19;20357;-67
2023/09/17 05:59:48;;;;;;;18.52;14.10;;;;;;;16.21;86.36;101624.13;7399621;19;19915;-66
2023/09/17 06:02:16;;;;;;;18.58;14.55;;;;;;;16.24;86.87;101631.03;7398570;19;19933;-66
2023/09/17 06:04:47;;;;;;;20.58;16.33;;;;;;;16.27;86.80;101631.47;7396568;19;19926;-66
2023/09/17 06:07:16;;;;;;;22.15;15.60;;;;;;;16.29;86.61;101623.97;7397531;19;19914;-65
2023/09/17 06:09:47;;;;;;;20.73;15.98;;;;;;;16.33;86.25;101619.81;7400004;19;19918;-66
2023/09/17 06:12:16;;;;;;;20.38;15.45;;;;;;;16.37;86.57;101619.41;7398799;19;19973;-66
2023/09/17 06:14:45;;;;;;;21.50;15.85;;;;;;;16.39;86.28;101615.47;7399227;19;19918;-66
2023/09/17 06:17:33;;;;;;;;;;;;;;;16.24;88.06;101612.00;7401199;19;19915;-66
2023/09/17 06:20:02;;;;;;;23.52;15.82;;;;;;;16.39;86.88;101607.31;7398194;19;20606;-66
2023/09/17 06:22:32;;;;;;;26.80;17.33;;;;;;;16.45;86.86;101613.81;7398700;19;20308;-66
2023/09/17 06:25:03;;;;;;;23.30;17.15;;;;;;;16.50;86.80;101619.53;7398938;19;19939;-65
2023/09/17 06:27:33;;;;;;;23.63;16.00;;;;;;;16.55;86.82;101617.06;7397864;19;19966;-66
2023/09/17 06:30:02;;;;;;;23.60;16.25;;;;;;;16.58;86.74;101614.81;7398845;19;20006;-66
2023/09/17 06:32:31;;;;;;;24.00;16.92;;;;;;;16.64;87.26;101607.75;7399281;19;19919;-66
2023/09/17 06:34:59;;;;;;;21.52;16.80;;;;;;;16.68;86.88;101603.59;7394632;19;19923;-66
2023/09/17 06:37:28;;;;;;;30.80;19.85;;;;;;;16.73;86.50;101601.09;7397729;19;19926;-66
2023/09/17 06:39:57;;;;;;;26.63;18.67;;;;;;;16.78;86.83;101599.44;7397625;19;19919;-66
2023/09/17 06:42:29;;;;;;;25.88;17.45;;;;;;;16.85;86.58;101602.22;7396298;19;20353;-66
2023/09/17 06:44:58;;;;;;;25.20;17.70;;;;;;;16.91;87.38;101603.31;7396366;19;20038;-66
2023/09/17 06:47:26;;;;;;;26.73;20.10;;;;;;;16.93;86.73;101604.78;7398550;19;19943;-66
2023/09/17 06:49:55;;;;;;;24.35;17.73;;;;;;;16.97;86.20;101608.78;7396371;19;19936;-67
2023/09/17 06:52:27;;;;;;;27.40;19.50;;;;;;;17.01;86.53;101610.06;7397163;19;20355;-66
2023/09/17 06:54:55;;;;;;;28.00;18.17;;;;;;;17.05;86.53;101605.03;7396447;19;19922;-66
2023/09/17 06:57:24;;;;;;;23.92;18.35;;;;;;;17.08;86.60;101610.09;7397316;19;20364;-66
2023/09/17 06:59:55;;;;;;;26.20;18.45;;;;;;;17.13;86.46;101603.00;7397457;19;19918;-66
2023/09/17 07:02:24;;;;;;;23.88;17.83;;;;;;;17.16;86.88;101608.06;7397045;19;19926;-66
2023/09/17 07:05:13;;;;;;;24.02;18.08;;;;;;;17.21;86.86;101607.44;7392266;19;19918;-66
2023/09/17 07:07:42;;;;;;;22.27;16.45;;;;;;;17.28;86.55;101607.47;7396890;19;19940;-67
2023/09/17 07:10:11;;;;;;;23.27;17.80;;;;;;;17.31;86.53;101607.06;7396944;19;19968;-66
2023/09/17 07:12:40;;;;;;;21.77;17.13;;;;;;;17.35;86.62;101594.72;7396737;19;19914;-66
2023/09/17 07:15:12;;;;;;;22.13;16.55;;;;;;;17.41;86.38;101596.63;7397070;19;20192;-66
2023/09/17 07:17:41;;;;;;;22.92;15.68;;;;;;;17.44;86.49;101591.59;7397492;19;19926;-67
2023/09/17 07:20:13;;;;;;;22.92;15.95;;;;;;;17.50;86.33;101582.63;7396256;19;19919;-66
2023/09/17 07:22:42;;;;;;;22.48;17.38;;;;;;;17.59;85.97;101575.97;7397122;19;19922;-66
2023/09/17 07:25:11;;;;;;;25.10;16.92;;;;;;;17.66;86.07;101578.72;7396221;19;19943;-65
2023/09/17 07:27:40;;;;;;;25.83;16.48;;;;;;;17.78;86.21;101577.03;7396807;19;19918;-66
2023/09/17 07:30:12;;;;;;;23.02;17.23;;;;;;;17.89;85.94;101571.00;7397093;19;19922;-66
2023/09/17 07:32:41;;;;;;;20.88;15.60;;;;;;;17.99;85.69;101579.59;7396904;19;19915;-67
2023/09/17 07:35:10;;;;;;;22.75;16.20;;;;;;;18.12;85.26;101571.41;7392422;19;20297;-66
2023/09/17 07:37:59;;;;;;;25.50;18.23;;;;;;;18.26;84.65;101576.88;7393998;19;19926;-65
2023/09/17 07:40:27;;;;;;;22.60;17.83;;;;;;;18.40;83.68;101567.66;7395693;19;19937;-67
2023/09/17 07:43:16;;;;;;;22.27;16.40;;;;;;;18.51;83.72;101572.44;7393594;19;19952;-66
2023/09/17 07:45:47;;;;;;;26.83;18.27;;;;;;;18.56;83.06;101570.81;7395370;19;19927;-66
2023/09/17 07:48:16;;;;;;;22.77;17.13;;;;;;;18.59;82.52;101573.09;7395915;19;19931;-66
2023/09/17 07:50:45;;;;;;;22.58;17.00;;;;;;;18.59;82.56;101575.00;7394985;19;19923;-65
2023/09/17 07:53:13;;;;;;;21.92;18.52;;;;;;;18.62;82.90;101577.31;7396320;19;19915;-66
2023/09/17 07:55:42;;;;;;;22.25;17.45;;;;;;;18.68;82.01;101576.44;7401306;19;19947;-66
2023/09/17 07:58:11;;;;;;;24.38;17.58;;;;;;;18.76;82.53;101559.84;7402456;19;19919;-66
2023/09/17 08:00:39;;;;;;;26.48;18.33;;;;;;;18.83;82.24;101552.47;7400368;19;19933;-66
2023/09/17 08:03:11;;;;;;;22.88;18.55;;;;;;;18.88;81.83;101546.38;7401665;19;20289;-66
2023/09/17 08:05:39;;;;;;;22.55;15.95;;;;;;;18.87;81.40;101541.97;7399488;19;19929;-67
2023/09/17 08:08:08;;;;;;;26.63;17.20;;;;;;;18.83;81.47;101544.28;7400419;19;19918;-66
2023/09/17 08:10:39;;;;;;;22.95;18.73;;;;;;;18.84;81.27;101542.41;7400793;19;19919;-67
2023/09/17 08:13:08;;;;;;;22.80;17.05;;;;;;;18.79;81.42;101545.78;7401442;19;20316;-66
2023/09/17 08:15:37;;;;;;;21.92;18.02;;;;;;;18.78;81.69;101546.81;7401069;19;19922;-66
2023/09/17 08:18:07;;;;;;;24.20;17.90;;;;;;;18.76;81.68;101540.75;7399479;19;19922;-67
2023/09/17 08:20:38;;;;;;;24.30;17.88;;;;;;;18.75;81.58;101539.06;7401524;19;19943;-66
2023/09/17 08:23:07;;;;;;;25.00;17.60;;;;;;;18.76;81.37;101524.38;7401177;19;20345;-66
2023/09/17 08:25:36;;;;;;;22.02;18.27;;;;;;;18.85;81.75;101533.16;7401890;19;19922;-66
2023/09/17 08:28:06;;;;;;;23.92;18.27;;;;;;;18.95;81.54;101528.91;7401197;19;19929;-67
2023/09/17 08:30:35;;;;;;;23.67;16.60;;;;;;;19.07;81.29;101529.06;7402384;19;19918;-66
2023/09/17 08:33:04;;;;;;;22.60;16.95;;;;;;;19.18;80.82;101533.84;7401343;19;19923;-67
2023/09/17 08:35:32;;;;;;;20.70;16.33;;;;;;;19.27;80.12;101534.44;7395601;19;20033;-67
2023/09/17 08:38:04;;;;;;;22.65;16.27;;;;;;;19.40;80.45;101531.66;7401386;19;19943;-66
2023/09/17 08:40:36;;;;;;;22.73;15.82;;;;;;;19.49;80.21;101530.38;7401609;19;19923;-66
2023/09/17 08:43:06;;;;;;;20.45;15.77;;;;;;;19.56;79.29;101527.56;7400048;19;19919;-67
2023/09/17 08:45:34;;;;;;;20.52;14.65;;;;;;;19.56;78.57;101528.41;7401564;19;20369;-66
2023/09/17 08:48:05;;;;;;;19.85;13.32;;;;;;;19.58;78.25;101520.84;7400959;19;20345;-66
2023/09/17 08:50:37;;;;;;;18.35;12.45;;;;;;;19.62;77.96;101524.81;7401009;19;20641;-67
2023/09/17 08:53:09;;;;;;;14.45;11.38;;;;;;;19.64;77.30;101517.22;7400571;19;19915;-66
2023/09/17 08:55:38;;;;;;;14.32;11.75;;;;;;;19.68;77.61;101515.72;7398909;19;20349;-66
2023/09/17 08:58:14;;;;;;;17.48;12.25;;;;;;;19.70;76.96;101513.63;7401175;19;19915;-67
2023/09/17 09:00:51;;;;;;;17.70;11.70;;;;;;;19.75;77.05;101508.31;7399944;19;20409;-67
2023/09/17 09:03:20;;;;;;;;;;;;;;;19.68;77.21;101507.50;7402042;19;19950;-67
2023/09/17 09:06:11;;;;;;;18.67;12.02;;;;;;;19.84;77.03;101507.00;7393513;19;19952;-67
2023/09/17 09:09:04;;;;;;;19.92;12.38;;;;;;;19.88;77.00;101505.47;7398761;19;19918;-66
2023/09/17 09:11:34;;;;;;;18.35;10.77;;;;;;;19.92;76.85;101505.88;7400730;19;19918;-67
2023/09/17 09:14:05;;;;;;;13.95;9.45;;;;;;;19.98;75.71;101501.38;7400570;19;19944;-67
2023/09/17 09:16:37;;;;;;;11.75;9.50;;;;;;;19.98;75.79;101501.38;7400941;19;20351;-67
2023/09/17 09:19:07;;;;;;;12.43;9.88;;;;;;;19.99;75.69;101500.31;7400202;19;20409;-67
2023/09/17 09:21:36;;;;;;;11.85;9.27;;;;;;;19.98;75.47;101501.38;7400876;19;19922;-67
2023/09/17 09:24:08;;;;;;;11.88;8.48;;;;;;;19.99;74.65;101492.97;7400919;19;20269;-67
2023/09/17 09:26:37;;;;;;;;;;;;;;;19.85;75.07;101485.94;7403152;19;19922;-66
2023/09/17 09:29:06;;;;;;;;;;;;;;;19.87;74.49;101490.13;7401776;19;19926;-66
2023/09/17 09:31:54;;;;;;;11.48;8.27;;;;;;;20.08;74.94;101485.31;7399195;19;19922;-66
2023/09/17 09:34:23;;;;;;;12.93;9.10;;;;;;;20.16;74.70;101485.03;7397048;19;19958;-66
2023/09/17 09:36:54;;;;;;;12.15;8.90;;;;;;;20.24;74.80;101487.47;7399616;19;19918;-66
2023/09/17 09:39:25;;;;;;;13.57;8.55;;;;;;;20.30;74.26;101473.75;7400115;19;19919;-66
2023/09/17 09:41:55;;;;;;;10.82;8.45;;;;;;;20.45;73.56;101470.63;7399417;19;19923;-66
2023/09/17 09:44:27;;;;;;;13.55;8.65;;;;;;;20.60;73.25;101482.06;7399069;19;20217;-67
2023/09/17 09:46:59;;;;;;;10.85;7.70;;;;;;;20.72;72.83;101474.75;7398671;19;19923;-66
2023/09/17 09:49:28;;;;;;;10.30;7.63;;;;;;;20.76;72.47;101473.22;7399396;19;20057;-66
2023/09/17 09:52:00;;;;;;;10.07;7.63;;;;;;;20.74;71.59;101469.91;7399854;19;19928;-66
2023/09/17 09:54:32;;;;;;;11.57;7.68;;;;;;;20.73;71.60;101473.69;7399054;19;19919;-66
2023/09/17 09:57:01;;;;;;;10.90;7.45;;;;;;;20.76;72.17;101464.19;7399148;19;20345;-67
2023/09/17 09:59:30;;;;;;;11.10;7.75;;;;;;;20.76;72.22;101466.91;7399243;19;22534;-67
2023/09/17 10:01:59;;;;;;;13.90;8.50;;;;;;;20.74;71.76;101469.91;7400145;19;19939;-66
2023/09/17 10:04:28;;;;;;;13.25;8.73;;;;;;;20.70;72.43;101470.59;7396040;19;19972;-67
2023/09/17 10:06:56;;;;;;;9.45;7.65;;;;;;;20.64;72.04;101466.00;7398983;19;19918;-66
2023/09/17 10:09:26;;;;;;;10.98;8.82;;;;;;;20.59;72.52;101469.44;7398664;19;19919;-67
2023/09/17 10:11:58;;;;;;;10.93;8.25;;;;;;;20.51;72.77;101467.00;7400173;19;19933;-66
2023/09/17 10:14:29;;;;;;;11.40;8.02;;;;;;;20.43;73.08;101461.84;7398911;19;19922;-66
2023/09/17 10:17:00;;;;;;;9.48;7.43;;;;;;;20.35;73.83;101465.72;7396521;19;19938;-66
2023/09/17 10:19:34;;;;;;;11.55;8.50;;;;;;;20.29;73.20;101452.06;7395682;19;20395;-67
2023/09/17 10:22:06;;;;;;;16.38;8.55;;;;;;;20.27;73.58;101454.19;7398362;19;20252;-66
2023/09/17 10:24:37;;;;;;;12.07;8.30;;;;;;;20.24;74.80;101454.63;7399074;19;19918;-66
2023/09/17 10:27:10;;;;;;;10.88;7.60;;;;;;;20.19;74.69;101449.84;7399375;19;20392;-67
2023/09/17 10:29:39;;;;;;;11.05;7.20;;;;;;;20.20;74.54;101453.41;7399372;19;19939;-67
2023/09/17 10:32:09;;;;;;;11.02;7.18;;;;;;;20.22;74.15;101451.31;7396400;19;19922;-67
2023/09/17 10:34:38;;;;;;;10.10;6.90;;;;;;;20.27;75.23;101446.84;7394915;19;19923;-67
2023/09/17 10:37:07;;;;;;;9.52;7.18;;;;;;;20.36;74.67;101444.66;7398275;19;19914;-67
2023/09/17 10:39:38;;;;;;;10.82;7.95;;;;;;;20.48;75.63;101436.53;7397619;19;19986;-67
2023/09/17 10:42:10;;;;;;;11.73;8.43;;;;;;;20.59;76.16;101435.75;7399112;19;20344;-67
2023/09/17 10:45:03;;;;;;;10.20;7.85;;;;;;;20.74;75.95;101439.78;7395902;19;19982;-67
2023/09/17 10:47:35;;;;;;;12.50;9.65;;;;;;;20.84;76.04;101429.09;7395514;19;19917;-67
2023/09/17 10:50:04;;;;;;;;;;;;;;;20.78;77.13;101437.41;7400324;19;19939;-66
2023/09/17 10:52:34;;;;;;;10.93;7.22;;;;;;;20.91;75.29;101431.75;7398131;19;19923;-67
2023/09/17 10:55:25;;;;;;;10.25;6.63;;;;;;;20.92;75.46;101425.22;7394739;19;19926;-67
2023/09/17 10:58:06;;;;;;;12.27;7.45;;;;;;;20.92;74.24;101418.91;7398157;19;19915;-67
2023/09/17 11:00:37;;;;;;;12.65;7.13;;;;;;;20.91;73.31;101415.31;7397471;19;20352;-67
2023/09/17 11:03:08;;;;;;;7.93;6.65;;;;;;;20.88;74.07;101423.19;7397243;19;19926;-67
2023/09/17 11:05:37;;;;;;;9.55;6.97;;;;;;;20.84;74.14;101418.13;7394421;19;19974;-67
2023/09/17 11:08:08;;;;;;;10.15;7.05;;;;;;;20.83;74.12;101416.50;7397684;19;19930;-67
2023/09/17 11:10:41;;;;;;;11.15;7.60;;;;;;;20.83;73.61;101412.91;7397248;19;19929;-67
2023/09/17 11:13:15;;;;;;;11.68;7.80;;;;;;;20.82;73.88;101406.59;7397673;19;19941;-66
2023/09/17 11:16:04;;;;;;;12.43;8.35;;;;;;;20.87;73.15;101416.03;7395968;19;20284;-67
2023/09/17 11:18:32;;;;;;;14.52;8.55;;;;;;;20.97;72.95;101411.66;7396188;19;19923;-67
2023/09/17 11:21:06;;;;;;;13.95;8.52;;;;;;;21.12;72.55;101403.00;7397704;19;19919;-67
2023/09/17 11:23:45;;;;;;;10.63;8.38;;;;;;;21.36;72.69;101393.00;7396867;19;19919;-66
2023/09/17 11:26:22;;;;;;;12.43;9.02;;;;;;;21.66;71.64;101397.31;7396943;19;19930;-67
2023/09/17 11:28:58;;;;;;;15.63;9.48;;;;;;;21.96;70.17;101399.97;7399378;19;19918;-67
2023/09/17 11:31:28;;;;;;;12.45;8.70;;;;;;;22.43;69.92;101397.19;7402418;19;20349;-67